Time;durP1;ratioP1;P1;durP2;ratioP2;P2;SDS_P1;SDS_P2;PMS_P1;PMS_P2;Temp;Humidity;BMP_temperature;BMP_pressure;BME280_temperature;BME280_humidity;BME280_pressure;Samples;Min_cycle;Max_cycle;Signal;HPM_P1;HPM_P2
2022/09/06 00:00:53;;;;;;;6.80;6.30;;;;;;;;;;5052861;28;20441;-76
2022/09/06 00:03:20;;;;;;;5.97;5.47;;;;;;;;;;5052511;28;20449;-77
2022/09/06 00:05:47;;;;;;;6.73;6.23;;;;;;;;;;5051500;28;20489;-77
2022/09/06 00:08:15;;;;;;;6.77;6.17;;;;;;;;;;5051301;28;20836;-79
2022/09/06 00:10:42;;;;;;;6.77;6.17;;;;;;;;;;5055472;28;20766;-77
2022/09/06 00:13:11;;;;;;;6.50;6.00;;;;;;;;;;5071046;28;20822;-76
2022/09/06 00:15:38;;;;;;;7.30;6.60;;;;;;;;;;5070743;28;20825;-76
2022/09/06 00:18:06;;;;;;;6.63;5.93;;;;;;;;;;5070917;28;20452;-76
2022/09/06 00:20:34;;;;;;;5.97;5.37;;;;;;;;;;5070772;28;20437;-77
2022/09/06 00:23:02;;;;;;;5.53;5.13;;;;;;;;;;5070339;28;20441;-77
2022/09/06 00:25:30;;;;;;;7.30;6.07;;;;;;;;;;5070256;28;20476;-77
2022/09/06 00:27:58;;;;;;;6.70;6.07;;;;;;;;;;5070634;28;20582;-76
2022/09/06 00:30:25;;;;;;;9.70;6.00;;;;;;;;;;5070395;28;20445;-76
2022/09/06 00:32:53;;;;;;;6.70;6.13;;;;;;;;;;5070114;28;20444;-77
2022/09/06 00:35:23;;;;;;;6.13;5.60;;;;;;;;;;5070648;28;20499;-76
2022/09/06 00:37:50;;;;;;;6.73;6.13;;;;;;;;;;5070245;28;20475;-76
2022/09/06 00:40:17;;;;;;;6.33;5.87;;;;;;;;;;5070165;28;20441;-76
2022/09/06 00:42:46;;;;;;;6.23;5.83;;;;;;;;;;5070634;28;20441;-77
2022/09/06 00:45:13;;;;;;;8.77;5.70;;;;;;;;;;5070490;28;20940;-76
2022/09/06 00:47:42;;;;;;;6.43;5.93;;;;;;;;;;5070421;28;20778;-76
2022/09/06 00:50:10;;;;;;;7.23;5.90;;;;;;;;;;5070455;28;20812;-76
2022/09/06 00:52:38;;;;;;;7.27;6.03;;;;;;;;;;5070286;28;20440;-76
2022/09/06 00:55:05;;;;;;;9.40;6.47;;;;;;;;;;5070487;28;20448;-77
2022/09/06 00:57:33;;;;;;;6.37;5.87;;;;;;;;;;5070999;28;20461;-77
2022/09/06 01:00:02;;;;;;;6.27;5.77;;;;;;;;;;5070733;28;20868;-77
2022/09/06 01:02:29;;;;;;;5.93;5.40;;;;;;;;;;5070276;28;20459;-77
2022/09/06 01:04:57;;;;;;;6.50;5.90;;;;;;;;;;5070745;28;20453;-76
2022/09/06 01:07:30;;;;;;;6.17;5.67;;;;;;;;;;5070700;28;20970;-76
2022/09/06 01:10:03;;;;;;;6.10;5.60;;;;;;;;;;5070868;28;20458;-76
2022/09/06 01:12:34;;;;;;;6.30;5.90;;;;;;;;;;5070801;28;20425;-77
2022/09/06 01:15:18;;;;;;;5.83;5.43;;;;;;;;;;5070650;28;20899;-76
2022/09/06 01:17:50;;;;;;;7.10;5.90;;;;;;;;;;5070221;28;20808;-77
2022/09/06 01:20:40;;;;;;;6.47;5.97;;;;;;;;;;5070270;28;20475;-77
2022/09/06 01:23:19;;;;;;;6.23;5.80;;;;;;;;;;5070204;28;20441;-76
2022/09/06 01:25:51;;;;;;;6.67;6.07;;;;;;;;;;5070346;28;20492;-76
2022/09/06 01:28:26;;;;;;;7.13;5.70;;;;;;;;;;5069895;28;20472;-77
2022/09/06 01:30:58;;;;;;;6.93;6.43;;;;;;;;;;5070355;28;20432;-76
2022/09/06 01:33:27;;;;;;;7.77;6.27;;;;;;;;;;5069971;28;20444;-76
2022/09/06 01:35:56;;;;;;;7.00;6.43;;;;;;;;;;5070208;28;20445;-78
2022/09/06 01:38:23;;;;;;;5.73;5.33;;;;;;;;;;5070193;28;20509;-77
2022/09/06 01:40:50;;;;;;;6.17;5.73;;;;;;;;;;5070154;28;20441;-76
2022/09/06 01:43:21;;;;;;;7.93;6.17;;;;;;;;;;5072387;28;20448;-76
2022/09/06 01:45:56;;;;;;;7.10;6.40;;;;;;;;;;5075463;28;20476;-76
2022/09/06 01:48:29;;;;;;;6.83;6.30;;;;;;;;;;5074361;28;20460;-77
2022/09/06 01:51:04;;;;;;;6.87;6.27;;;;;;;;;;5073590;28;20425;-76
2022/09/06 01:53:41;;;;;;;6.17;5.60;;;;;;;;;;5073528;28;20493;-76
2022/09/06 01:56:09;;;;;;;6.80;6.17;;;;;;;;;;5074661;28;20486;-76
2022/09/06 01:58:52;;;;;;;6.30;5.70;;;;;;;;;;5076058;28;20476;-76
2022/09/06 02:01:26;;;;;;;7.10;6.40;;;;;;;;;;5075926;28;20449;-77
2022/09/06 02:03:55;;;;;;;6.57;5.97;;;;;;;;;;5075988;28;20539;-76
2022/09/06 02:06:24;;;;;;;6.63;6.03;;;;;;;;;;5076269;28;20484;-76
2022/09/06 02:08:53;;;;;;;6.63;6.13;;;;;;;;;;5075115;28;20494;-76
2022/09/06 02:11:21;;;;;;;7.00;6.37;;;;;;;;;;5073579;28;20560;-77
2022/09/06 02:13:50;;;;;;;6.93;6.33;;;;;;;;;;5073176;28;20448;-77
2022/09/06 02:16:20;;;;;;;7.50;6.73;;;;;;;;;;5073596;28;20436;-76
2022/09/06 02:18:52;;;;;;;7.43;6.13;;;;;;;;;;5080885;28;20448;-76
2022/09/06 02:21:22;;;;;;;8.90;6.10;;;;;;;;;;5080083;28;20483;-77
2022/09/06 02:23:50;;;;;;;5.63;5.23;;;;;;;;;;5092374;28;20478;-76
2022/09/06 02:26:18;;;;;;;5.90;5.30;;;;;;;;;;5095122;28;20518;-76
2022/09/06 02:28:46;;;;;;;6.07;5.57;;;;;;;;;;5079955;28;20486;-76
2022/09/06 02:31:16;;;;;;;5.33;4.90;;;;;;;;;;5077170;28;20440;-76
2022/09/06 02:33:44;;;;;;;7.07;5.80;;;;;;;;;;5076859;28;20483;-77
2022/09/06 02:36:14;;;;;;;5.83;4.87;;;;;;;;;;5076384;28;20433;-76
2022/09/06 02:38:42;;;;;;;5.50;5.10;;;;;;;;;;5078748;28;20465;-77
2022/09/06 02:41:10;;;;;;;5.30;5.00;;;;;;;;;;5077823;28;20489;-76
2022/09/06 02:43:37;;;;;;;5.93;5.53;;;;;;;;;;5076212;28;20456;-76
2022/09/06 02:46:04;;;;;;;6.10;5.60;;;;;;;;;;5076183;28;20444;-76
2022/09/06 02:48:31;;;;;;;5.50;5.10;;;;;;;;;;5080199;28;20517;-76
2022/09/06 02:50:58;;;;;;;5.53;5.23;;;;;;;;;;5082341;28;20447;-76
2022/09/06 02:53:26;;;;;;;7.60;5.00;;;;;;;;;;5084487;28;20441;-76
2022/09/06 02:55:53;;;;;;;7.17;5.60;;;;;;;;;;5080330;28;21230;-76
2022/09/06 02:58:20;;;;;;;7.50;5.87;;;;;;;;;;5074729;28;20469;-77
2022/09/06 03:00:47;;;;;;;10.10;7.07;;;;;;;;;;5073663;28;20588;-76
2022/09/06 03:03:14;;;;;;;9.53;7.40;;;;;;;;;;5073585;28;20451;-76
2022/09/06 03:05:42;;;;;;;7.87;7.10;;;;;;;;;;5074914;28;20460;-75
2022/09/06 03:08:09;;;;;;;7.47;6.77;;;;;;;;;;5079234;28;20473;-76
2022/09/06 03:10:37;;;;;;;7.97;7.23;;;;;;;;;;5072513;28;20434;-77
2022/09/06 03:13:04;;;;;;;7.87;6.90;;;;;;;;;;5052597;28;20437;-76
2022/09/06 03:15:31;;;;;;;8.43;6.87;;;;;;;;;;5052805;28;20536;-75
2022/09/06 03:17:59;;;;;;;8.20;7.40;;;;;;;;;;5052482;28;20511;-76
2022/09/06 03:20:26;;;;;;;7.60;7.00;;;;;;;;;;5052297;28;20865;-77
2022/09/06 03:22:53;;;;;;;8.70;6.77;;;;;;;;;;5051925;28;20480;-76
2022/09/06 03:25:20;;;;;;;12.23;7.13;;;;;;;;;;5052277;28;20457;-76
2022/09/06 03:27:48;;;;;;;7.50;6.90;;;;;;;;;;5052246;28;20486;-77
2022/09/06 03:30:16;;;;;;;8.60;7.80;;;;;;;;;;5052443;28;20446;-77
2022/09/06 03:32:43;;;;;;;8.27;7.47;;;;;;;;;;5052449;28;20453;-77
2022/09/06 03:35:10;;;;;;;8.10;7.40;;;;;;;;;;5052677;28;20480;-76
2022/09/06 03:37:38;;;;;;;8.13;7.40;;;;;;;;;;5052084;28;20901;-76
2022/09/06 03:40:06;;;;;;;10.27;7.87;;;;;;;;;;5052185;28;20499;-76
2022/09/06 03:42:33;;;;;;;8.77;7.47;;;;;;;;;;5051687;28;20457;-77
2022/09/06 03:45:01;;;;;;;8.70;7.87;;;;;;;;;;5051966;28;21186;-76
2022/09/06 03:47:28;;;;;;;8.60;7.63;;;;;;;;;;5051599;28;21001;-77
2022/09/06 03:49:55;;;;;;;9.07;8.27;;;;;;;;;;5052040;28;20441;-77
2022/09/06 03:52:22;;;;;;;9.47;8.77;;;;;;;;;;5052487;28;20503;-76
2022/09/06 03:54:49;;;;;;;8.77;8.07;;;;;;;;;;5052757;28;20455;-77
2022/09/06 03:57:16;;;;;;;8.60;7.90;;;;;;;;;;5053104;28;20516;-76
2022/09/06 03:59:43;;;;;;;8.80;8.00;;;;;;;;;;5053535;28;20523;-75
2022/09/06 04:02:12;;;;;;;9.10;8.30;;;;;;;;;;5053659;28;20446;-77
2022/09/06 04:04:39;;;;;;;8.57;7.77;;;;;;;;;;5051902;28;20460;-76
2022/09/06 04:07:06;;;;;;;8.47;7.83;;;;;;;;;;5051876;28;21008;-78
2022/09/06 04:09:33;;;;;;;9.00;8.10;;;;;;;;;;5054656;28;20450;-77
2022/09/06 04:12:00;;;;;;;9.70;8.80;;;;;;;;;;5063278;28;20452;-76
2022/09/06 04:14:27;;;;;;;10.00;9.00;;;;;;;;;;5067340;28;21014;-77
2022/09/06 04:16:54;;;;;;;9.50;8.80;;;;;;;;;;5078031;28;20486;-76
2022/09/06 04:19:22;;;;;;;8.50;7.87;;;;;;;;;;5073533;28;20452;-76
2022/09/06 04:21:50;;;;;;;9.20;8.50;;;;;;;;;;5069476;28;20436;-76
2022/09/06 04:24:17;;;;;;;10.90;10.00;;;;;;;;;;5053434;28;20445;-77
2022/09/06 04:26:44;;;;;;;13.70;8.57;;;;;;;;;;5053146;28;20493;-77
2022/09/06 04:29:11;;;;;;;8.73;8.10;;;;;;;;;;5068279;28;20491;-76
2022/09/06 04:31:38;;;;;;;8.97;8.30;;;;;;;;;;5077136;28;20445;-77
2022/09/06 04:34:05;;;;;;;9.07;8.27;;;;;;;;;;5088893;28;20429;-79
2022/09/06 04:36:33;;;;;;;8.70;8.10;;;;;;;;;;5095665;28;20428;-76
2022/09/06 04:39:00;;;;;;;9.00;8.30;;;;;;;;;;5097039;28;20490;-77
2022/09/06 04:41:27;;;;;;;8.87;8.17;;;;;;;;;;5097406;28;20475;-76
2022/09/06 04:43:54;;;;;;;8.93;8.23;;;;;;;;;;5096347;28;20444;-76
2022/09/06 04:46:23;;;;;;;9.87;8.73;;;;;;;;;;5090349;28;20440;-77
2022/09/06 04:48:50;;;;;;;10.90;9.80;;;;;;;;;;5084326;28;20491;-77
2022/09/06 04:51:18;;;;;;;10.00;9.20;;;;;;;;;;5084432;28;20437;-77
2022/09/06 04:53:46;;;;;;;10.23;8.73;;;;;;;;;;5080651;28;20430;-76
2022/09/06 04:56:14;;;;;;;14.33;9.60;;;;;;;;;;5067106;28;20499;-76
2022/09/06 04:58:41;;;;;;;11.30;10.40;;;;;;;;;;5066353;28;20465;-76
2022/09/06 05:01:08;;;;;;;16.37;9.50;;;;;;;;;;5070007;28;20449;-76
2022/09/06 05:03:36;;;;;;;10.70;9.70;;;;;;;;;;5082899;28;20438;-76
2022/09/06 05:06:07;;;;;;;10.07;9.37;;;;;;;;;;5081492;28;20437;-76
2022/09/06 05:08:34;;;;;;;14.10;10.60;;;;;;;;;;5082193;28;21074;-76
2022/09/06 05:11:02;;;;;;;10.93;10.00;;;;;;;;;;5081383;28;20475;-77
2022/09/06 05:13:29;;;;;;;12.17;10.90;;;;;;;;;;5082248;28;20460;-75
2022/09/06 05:15:56;;;;;;;12.27;11.17;;;;;;;;;;5066692;28;20506;-77
2022/09/06 05:18:26;;;;;;;12.30;11.20;;;;;;;;;;5065266;28;21016;-77
2022/09/06 05:20:54;;;;;;;12.87;11.53;;;;;;;;;;5062330;28;20445;-76
2022/09/06 05:23:21;;;;;;;10.70;9.70;;;;;;;;;;5057045;28;20491;-75
2022/09/06 05:25:48;;;;;;;12.33;11.00;;;;;;;;;;5057381;28;20444;-77
2022/09/06 05:28:16;;;;;;;11.23;10.23;;;;;;;;;;5064941;28;20472;-77
2022/09/06 05:30:44;;;;;;;11.10;10.00;;;;;;;;;;5061120;28;20438;-76
2022/09/06 05:33:12;;;;;;;10.70;9.73;;;;;;;;;;5054144;28;20448;-77
2022/09/06 05:35:39;;;;;;;11.60;10.60;;;;;;;;;;5054304;28;20446;-77
2022/09/06 05:38:06;;;;;;;10.27;9.37;;;;;;;;;;5062871;28;20452;-76
2022/09/06 05:40:33;;;;;;;10.97;10.03;;;;;;;;;;5064771;28;20433;-78
2022/09/06 05:43:00;;;;;;;11.63;10.63;;;;;;;;;;5062511;28;20491;-78
2022/09/06 05:45:28;;;;;;;11.03;10.13;;;;;;;;;;5063696;28;20436;-77
2022/09/06 05:47:55;;;;;;;11.90;10.80;;;;;;;;;;5064454;28;20903;-77
2022/09/06 05:50:23;;;;;;;12.40;11.40;;;;;;;;;;5079057;28;20456;-78
2022/09/06 05:52:50;;;;;;;11.47;10.47;;;;;;;;;;5069822;28;20433;-77
2022/09/06 05:55:17;;;;;;;11.73;10.60;;;;;;;;;;5055940;28;20813;-78
2022/09/06 05:57:44;;;;;;;9.83;8.93;;;;;;;;;;5054851;28;20484;-77
2022/09/06 06:00:11;;;;;;;11.83;10.80;;;;;;;;;;5054176;28;20838;-78
2022/09/06 06:02:40;;;;;;;12.07;10.97;;;;;;;;;;5054440;28;20707;-78
2022/09/06 06:05:07;;;;;;;11.03;10.03;;;;;;;;;;5054251;28;20468;-77
2022/09/06 06:07:34;;;;;;;11.20;10.30;;;;;;;;;;5053764;28;20913;-77
2022/09/06 06:10:01;;;;;;;12.00;10.77;;;;;;;;;;5054338;28;20449;-77
2022/09/06 06:12:28;;;;;;;10.90;9.80;;;;;;;;;;5056767;28;20441;-77
2022/09/06 06:14:55;;;;;;;11.03;9.47;;;;;;;;;;5057238;28;20457;-78
2022/09/06 06:17:22;;;;;;;11.80;10.13;;;;;;;;;;5054634;28;20462;-77
2022/09/06 06:19:52;;;;;;;13.10;10.47;;;;;;;;;;5088317;28;20863;-78
2022/09/06 06:22:19;;;;;;;10.03;9.13;;;;;;;;;;5093653;28;20450;-78
2022/09/06 06:24:46;;;;;;;13.87;9.77;;;;;;;;;;5094330;28;20435;-78
2022/09/06 06:27:13;;;;;;;11.13;10.13;;;;;;;;;;5093384;28;20497;-78
2022/09/06 06:29:40;;;;;;;10.50;9.60;;;;;;;;;;5092714;28;20435;-79
2022/09/06 06:32:07;;;;;;;10.17;9.30;;;;;;;;;;5093401;28;20949;-79
2022/09/06 06:34:34;;;;;;;11.23;9.53;;;;;;;;;;5093606;28;20443;-77
2022/09/06 06:37:02;;;;;;;10.70;9.23;;;;;;;;;;5093880;28;20524;-78
2022/09/06 06:39:29;;;;;;;11.47;10.27;;;;;;;;;;5093793;28;20448;-78
2022/09/06 06:41:56;;;;;;;10.23;9.20;;;;;;;;;;5094286;28;20444;-77
2022/09/06 06:44:26;;;;;;;9.33;8.33;;;;;;;;;;5094151;28;20448;-77
2022/09/06 06:46:53;;;;;;;9.37;8.47;;;;;;;;;;5095584;28;21061;-77
2022/09/06 06:49:20;;;;;;;9.30;8.00;;;;;;;;;;5096571;28;20504;-79
2022/09/06 06:51:47;;;;;;;8.80;8.00;;;;;;;;;;5095496;28;20492;-78
2022/09/06 06:54:15;;;;;;;8.70;8.10;;;;;;;;;;5080982;28;20453;-78
2022/09/06 06:56:43;;;;;;;12.67;9.80;;;;;;;;;;5071478;28;20478;-77
2022/09/06 06:59:10;;;;;;;10.90;10.00;;;;;;;;;;5072468;28;20452;-77
2022/09/06 07:01:38;;;;;;;11.90;7.30;;;;;;;;;;5075254;28;20494;-78
2022/09/06 07:04:05;;;;;;;9.00;8.10;;;;;;;;;;5073784;28;20451;-77
2022/09/06 07:06:46;;;;;;;9.10;7.90;;;;;;;;;;5072838;28;20495;-77
2022/09/06 07:09:13;;;;;;;9.10;8.30;;;;;;;;;;5073119;28;20887;-77
2022/09/06 07:14:28;;;;;;;8.27;7.67;;;;;;;;;;5035250;28;20433;-76
2022/09/06 07:16:58;;;;;;;8.73;7.83;;;;;;;;;;5073284;28;20472;-77
2022/09/06 07:19:25;;;;;;;11.60;7.00;;;;;;;;;;5072694;28;20482;-77
2022/09/06 07:21:52;;;;;;;11.03;9.97;;;;;;;;;;5072912;28;20448;-76
2022/09/06 07:24:32;;;;;;;13.70;11.23;;;;;;;;;;5072964;28;20449;-77
2022/09/06 07:27:00;;;;;;;8.70;7.83;;;;;;;;;;5075977;28;21411;-77
2022/09/06 07:29:27;;;;;;;8.03;7.37;;;;;;;;;;5071395;28;20484;-77
2022/09/06 07:31:56;;;;;;;8.10;7.30;;;;;;;;;;5073533;28;20445;-77
2022/09/06 07:34:24;;;;;;;7.40;6.57;;;;;;;;;;5072889;28;20815;-78
2022/09/06 07:36:52;;;;;;;7.83;7.03;;;;;;;;;;5071525;28;20492;-77
2022/09/06 07:39:19;;;;;;;9.77;6.70;;;;;;;;;;5073832;28;20447;-77
2022/09/06 07:41:46;;;;;;;10.57;6.83;;;;;;;;;;5071104;28;20510;-77
2022/09/06 07:44:15;;;;;;;6.13;5.63;;;;;;;;;;5071102;28;20498;-77
2022/09/06 07:46:42;;;;;;;6.10;5.47;;;;;;;;;;5071280;28;20496;-76
2022/09/06 07:49:09;;;;;;;10.67;5.50;;;;;;;;;;5071406;28;21007;-77
2022/09/06 07:51:36;;;;;;;8.10;6.03;;;;;;;;;;5071478;28;20502;-77
2022/09/06 07:54:03;;;;;;;9.97;5.70;;;;;;;;;;5070796;28;20486;-77
2022/09/06 07:56:30;;;;;;;6.17;5.60;;;;;;;;;;5071268;28;20448;-76
2022/09/06 07:58:57;;;;;;;5.90;5.50;;;;;;;;;;5071218;28;20441;-77
2022/09/06 08:01:29;;;;;;;6.50;5.53;;;;;;;;;;5071210;28;20518;-77
2022/09/06 08:03:57;;;;;;;9.40;6.07;;;;;;;;;;5073923;28;20445;-76
2022/09/06 08:06:24;;;;;;;6.80;6.10;;;;;;;;;;5072005;28;20547;-77
2022/09/06 08:08:52;;;;;;;6.33;5.60;;;;;;;;;;5078682;28;20870;-75
2022/09/06 08:11:19;;;;;;;5.97;5.37;;;;;;;;;;5073902;28;20472;-76
2022/09/06 08:13:49;;;;;;;6.80;5.80;;;;;;;;;;5051371;28;20544;-75
2022/09/06 08:16:16;;;;;;;5.97;4.70;;;;;;;;;;5051006;28;20456;-76
2022/09/06 08:18:44;;;;;;;5.10;4.77;;;;;;;;;;5050909;28;21071;-76
2022/09/06 08:21:12;;;;;;;5.17;4.77;;;;;;;;;;5051113;28;20456;-76
2022/09/06 08:23:41;;;;;;;5.40;4.90;;;;;;;;;;5050713;28;20875;-76
2022/09/06 08:26:08;;;;;;;7.23;5.00;;;;;;;;;;5050859;28;20484;-76
2022/09/06 08:28:35;;;;;;;5.20;4.70;;;;;;;;;;5051160;28;20572;-76
2022/09/06 08:31:06;;;;;;;6.93;5.07;;;;;;;;;;5051179;28;20449;-76
2022/09/06 08:33:33;;;;;;;6.40;4.70;;;;;;;;;;5050166;28;20515;-77
2022/09/06 08:36:02;;;;;;;6.70;4.90;;;;;;;;;;5050999;28;20445;-76
2022/09/06 08:38:29;;;;;;;5.00;4.47;;;;;;;;;;5051077;28;20461;-77
2022/09/06 08:41:06;;;;;;;5.40;4.40;;;;;;;;;;5051130;28;21071;-76
2022/09/06 08:43:33;;;;;;;5.00;4.53;;;;;;;;;;5051056;28;20455;-77
2022/09/06 08:46:00;;;;;;;4.70;4.00;;;;;;;;;;5051209;28;20465;-76
2022/09/06 08:48:30;;;;;;;5.10;4.67;;;;;;;;;;5051393;28;20489;-76
2022/09/06 08:51:03;;;;;;;4.83;4.33;;;;;;;;;;5051300;28;20450;-77
2022/09/06 08:53:32;;;;;;;5.13;4.07;;;;;;;;;;5050763;28;20446;-77
2022/09/06 08:56:03;;;;;;;4.70;4.30;;;;;;;;;;5061290;28;20441;-76
2022/09/06 08:58:35;;;;;;;4.33;3.90;;;;;;;;;;5056444;28;20469;-76
2022/09/06 09:01:04;;;;;;;6.77;4.37;;;;;;;;;;5052349;28;20450;-76
2022/09/06 09:03:33;;;;;;;5.97;4.50;;;;;;;;;;5059235;28;21006;-77
2022/09/06 09:06:02;;;;;;;7.13;4.67;;;;;;;;;;5050082;28;20449;-76
2022/09/06 09:08:32;;;;;;;4.50;4.20;;;;;;;;;;5050541;28;20507;-77
2022/09/06 09:11:02;;;;;;;7.10;4.33;;;;;;;;;;5056718;28;20449;-77
2022/09/06 09:13:31;;;;;;;4.43;4.03;;;;;;;;;;5070235;28;20445;-77
2022/09/06 09:15:59;;;;;;;6.80;4.17;;;;;;;;;;5071885;28;20448;-76
2022/09/06 09:18:27;;;;;;;5.40;4.17;;;;;;;;;;5071264;28;20463;-78
2022/09/06 09:20:54;;;;;;;5.47;4.00;;;;;;;;;;5075090;28;20447;-76
2022/09/06 09:23:21;;;;;;;4.17;3.77;;;;;;;;;;5071986;28;20441;-75
2022/09/06 09:25:51;;;;;;;4.30;3.93;;;;;;;;;;5070589;28;20436;-76
2022/09/06 09:28:20;;;;;;;6.50;4.50;;;;;;;;;;5070074;28;20476;-76
2022/09/06 09:30:49;;;;;;;7.10;4.70;;;;;;;;;;5070355;28;20448;-77
2022/09/06 09:33:23;;;;;;;5.20;4.10;;;;;;;;;;5069989;28;20448;-77
2022/09/06 09:35:51;;;;;;;4.30;3.90;;;;;;;;;;5070525;28;20445;-76
2022/09/06 09:38:20;;;;;;;4.23;3.83;;;;;;;;;;5070472;28;20457;-76
2022/09/06 09:40:51;;;;;;;5.10;4.40;;;;;;;;;;5070639;28;20444;-76
2022/09/06 09:43:22;;;;;;;7.40;4.33;;;;;;;;;;5069938;28;20452;-75
2022/09/06 09:45:58;;;;;;;5.60;3.93;;;;;;;;;;5070111;28;20436;-77
2022/09/06 09:48:26;;;;;;;6.17;3.93;;;;;;;;;;5069732;28;20476;-77
2022/09/06 09:50:54;;;;;;;8.33;4.13;;;;;;;;;;5070139;28;20543;-76
2022/09/06 09:53:22;;;;;;;4.83;4.30;;;;;;;;;;5069756;28;20449;-76
2022/09/06 09:55:49;;;;;;;5.47;3.80;;;;;;;;;;5069830;28;20448;-76
2022/09/06 09:58:20;;;;;;;4.47;4.03;;;;;;;;;;5069620;28;20460;-77
2022/09/06 10:00:49;;;;;;;5.63;4.50;;;;;;;;;;5070184;28;20468;-78
2022/09/06 10:03:17;;;;;;;5.23;3.90;;;;;;;;;;5074014;28;20445;-76
2022/09/06 10:05:55;;;;;;;4.60;3.97;;;;;;;;;;5077201;28;20452;-76
2022/09/06 10:08:24;;;;;;;5.20;4.00;;;;;;;;;;5077782;28;20877;-76
2022/09/06 10:10:51;;;;;;;4.37;3.50;;;;;;;;;;5070692;28;20437;-75
2022/09/06 10:13:19;;;;;;;6.67;3.50;;;;;;;;;;5053454;28;20467;-76
2022/09/06 10:15:46;;;;;;;5.67;3.47;;;;;;;;;;5053501;28;20531;-76
2022/09/06 10:18:18;;;;;;;9.40;4.20;;;;;;;;;;5053017;28;20510;-76
2022/09/06 10:20:47;;;;;;;9.63;3.30;;;;;;;;;;5052807;28;20532;-77
2022/09/06 10:23:17;;;;;;;8.40;4.00;;;;;;;;;;5052545;28;20486;-77
2022/09/06 10:25:46;;;;;;;9.33;3.30;;;;;;;;;;5053218;28;20441;-77
2022/09/06 10:28:28;;;;;;;7.90;3.50;;;;;;;;;;5057169;28;20469;-76
2022/09/06 10:31:13;;;;;;;8.13;3.33;;;;;;;;;;5059306;28;20470;-76
2022/09/06 10:33:48;;;;;;;2.80;2.50;;;;;;;;;;5059203;28;20464;-76
2022/09/06 10:36:17;;;;;;;6.53;3.57;;;;;;;;;;5058389;28;20441;-76
2022/09/06 10:38:49;;;;;;;3.50;2.90;;;;;;;;;;5058356;28;20462;-77
2022/09/06 10:41:43;;;;;;;3.80;2.90;;;;;;;;;;5056521;28;20441;-77
2022/09/06 10:44:37;;;;;;;6.10;3.87;;;;;;;;;;5054529;28;20492;-77
2022/09/06 10:47:09;;;;;;;3.60;3.10;;;;;;;;;;5054887;28;20492;-76
2022/09/06 10:49:38;;;;;;;5.57;3.77;;;;;;;;;;5052923;28;20462;-77
2022/09/06 10:52:07;;;;;;;6.93;3.20;;;;;;;;;;5052848;28;20480;-76
2022/09/06 10:54:35;;;;;;;4.20;2.97;;;;;;;;;;5052300;28;20445;-77
2022/09/06 10:57:10;;;;;;;7.97;3.10;;;;;;;;;;5052254;28;20474;-77
2022/09/06 10:59:40;;;;;;;5.30;3.20;;;;;;;;;;5052764;28;20551;-77
2022/09/06 11:02:16;;;;;;;6.10;3.73;;;;;;;;;;5052480;28;20454;-77
2022/09/06 11:04:46;;;;;;;4.07;2.87;;;;;;;;;;5052219;28;20457;-76
2022/09/06 11:07:18;;;;;;;5.00;3.20;;;;;;;;;;5052804;28;20470;-76
2022/09/06 11:09:47;;;;;;;3.20;2.90;;;;;;;;;;5052340;28;20481;-76
2022/09/06 11:12:17;;;;;;;6.70;3.47;;;;;;;;;;5069105;28;20437;-76
2022/09/06 11:14:44;;;;;;;7.57;3.10;;;;;;;;;;5072822;28;20494;-76
2022/09/06 11:17:14;;;;;;;5.43;3.20;;;;;;;;;;5072253;28;20551;-76
2022/09/06 11:19:44;;;;;;;8.23;4.00;;;;;;;;;;5071878;28;20452;-77
2022/09/06 11:22:32;;;;;;;6.03;3.57;;;;;;;;;;5071856;28;20501;-77
2022/09/06 11:25:14;;;;;;;3.27;2.93;;;;;;;;;;5071978;28;20445;-78
2022/09/06 11:27:43;;;;;;;3.63;3.33;;;;;;;;;;5071611;28;20818;-76
2022/09/06 11:30:14;;;;;;;5.87;3.87;;;;;;;;;;5071554;28;20480;-77
2022/09/06 11:32:47;;;;;;;5.83;3.50;;;;;;;;;;5071668;28;20502;-76
2022/09/06 11:35:22;;;;;;;6.90;5.30;;;;;;;;;;5071963;28;20441;-79
2022/09/06 11:37:58;;;;;;;4.60;3.90;;;;;;;;;;5070930;28;20988;-77
2022/09/06 11:40:27;;;;;;;5.33;3.17;;;;;;;;;;5070763;28;20474;-76
2022/09/06 11:43:13;;;;;;;4.97;3.73;;;;;;;;;;5070590;28;20471;-79
2022/09/06 11:45:42;;;;;;;5.13;4.13;;;;;;;;;;5071549;28;20487;-77
2022/09/06 11:48:32;;;;;;;5.03;4.00;;;;;;;;;;5070541;28;20936;-77
2022/09/06 11:51:06;;;;;;;10.47;3.60;;;;;;;;;;5071398;28;20571;-78
2022/09/06 11:53:34;;;;;;;5.73;3.23;;;;;;;;;;5071091;28;20491;-78
2022/09/06 11:56:17;;;;;;;4.83;3.60;;;;;;;;;;5071822;28;20512;-77
2022/09/06 11:58:49;;;;;;;4.50;3.77;;;;;;;;;;5071775;28;20464;-78
2022/09/06 12:01:35;;;;;;;5.00;3.40;;;;;;;;;;5071877;28;20474;-78
2022/09/06 12:04:04;;;;;;;8.07;3.50;;;;;;;;;;5073146;28;20452;-77
2022/09/06 12:06:32;;;;;;;5.37;3.50;;;;;;;;;;5073484;28;21001;-77
2022/09/06 12:08:59;;;;;;;5.20;4.03;;;;;;;;;;5071812;28;20444;-77
2022/09/06 12:11:29;;;;;;;4.00;3.40;;;;;;;;;;5061283;28;20441;-77
2022/09/06 12:13:59;;;;;;;14.43;4.03;;;;;;;;;;5050858;28;20446;-77
2022/09/06 12:16:46;;;;;;;4.30;3.80;;;;;;;;;;5051040;28;20449;-77
2022/09/06 12:19:28;;;;;;;4.70;3.47;;;;;;;;;;5050716;28;20446;-76
2022/09/06 12:21:56;;;;;;;4.00;3.67;;;;;;;;;;5050715;28;20460;-77
2022/09/06 12:24:42;;;;;;;8.73;3.97;;;;;;;;;;5051421;28;20495;-76
2022/09/06 12:27:12;;;;;;;6.47;4.33;;;;;;;;;;5052873;28;20457;-77
2022/09/06 12:29:39;;;;;;;5.97;4.07;;;;;;;;;;5052861;28;20480;-77
2022/09/06 12:32:07;;;;;;;7.50;4.10;;;;;;;;;;5051420;28;20500;-76
2022/09/06 12:34:35;;;;;;;5.53;3.53;;;;;;;;;;5050219;28;20794;-77
2022/09/06 12:37:04;;;;;;;4.90;3.70;;;;;;;;;;5050671;28;20461;-77
2022/09/06 12:39:31;;;;;;;6.23;4.33;;;;;;;;;;5051221;28;20489;-77
2022/09/06 12:42:00;;;;;;;6.87;4.10;;;;;;;;;;5051243;28;20445;-77
2022/09/06 12:44:33;;;;;;;4.80;4.00;;;;;;;;;;5050522;28;20446;-78
2022/09/06 12:47:04;;;;;;;4.40;4.00;;;;;;;;;;5050658;28;20495;-76
2022/09/06 12:49:32;;;;;;;4.80;4.40;;;;;;;;;;5050028;28;20477;-76
2022/09/06 12:52:08;;;;;;;8.47;4.80;;;;;;;;;;5050160;28;20438;-77
2022/09/06 12:54:41;;;;;;;6.83;4.47;;;;;;;;;;5049982;28;20497;-76
2022/09/06 12:57:12;;;;;;;12.43;5.30;;;;;;;;;;5050538;28;20465;-77
2022/09/06 12:59:47;;;;;;;6.70;4.67;;;;;;;;;;5050552;28;20503;-77
2022/09/06 13:02:17;;;;;;;7.77;4.87;;;;;;;;;;5051864;28;20449;-76
2022/09/06 13:04:47;;;;;;;5.40;4.57;;;;;;;;;;5055623;28;20507;-77
2022/09/06 13:07:18;;;;;;;10.23;4.93;;;;;;;;;;5058199;28;20916;-77
2022/09/06 13:09:46;;;;;;;6.43;5.10;;;;;;;;;;5055794;28;20482;-76
2022/09/06 13:12:19;;;;;;;8.10;4.87;;;;;;;;;;5050993;28;20950;-77
2022/09/06 13:14:46;;;;;;;10.30;5.43;;;;;;;;;;5049881;28;20428;-77
2022/09/06 13:17:23;;;;;;;7.37;5.43;;;;;;;;;;5050314;28;20465;-77
2022/09/06 13:19:50;;;;;;;5.23;4.40;;;;;;;;;;5050495;28;20532;-77
2022/09/06 13:22:32;;;;;;;8.37;5.00;;;;;;;;;;5050666;28;20483;-77
2022/09/06 13:25:01;;;;;;;9.10;4.80;;;;;;;;;;5049970;28;20445;-77
2022/09/06 13:27:34;;;;;;;6.20;4.57;;;;;;;;;;5050586;28;20461;-77
2022/09/06 13:30:02;;;;;;;9.43;5.00;;;;;;;;;;5050127;28;20504;-77
2022/09/06 13:32:29;;;;;;;9.27;4.73;;;;;;;;;;5050551;28;20948;-77
2022/09/06 13:34:58;;;;;;;9.90;4.90;;;;;;;;;;5050772;28;20449;-77
2022/09/06 13:37:25;;;;;;;5.83;4.60;;;;;;;;;;5050325;28;20465;-76
2022/09/06 13:39:52;;;;;;;8.13;5.37;;;;;;;;;;5052657;28;20449;-77
2022/09/06 13:42:28;;;;;;;5.70;4.50;;;;;;;;;;5054120;28;20532;-77
2022/09/06 13:44:55;;;;;;;6.10;5.00;;;;;;;;;;5054223;28;20449;-77
2022/09/06 13:47:22;;;;;;;5.67;4.70;;;;;;;;;;5054277;28;20548;-78
2022/09/06 13:49:53;;;;;;;7.80;5.07;;;;;;;;;;5054274;28;20911;-77
2022/09/06 13:52:21;;;;;;;6.20;5.30;;;;;;;;;;5053972;28;20456;-77
2022/09/06 13:54:48;;;;;;;6.60;4.97;;;;;;;;;;5053836;28;20801;-77
2022/09/06 13:57:15;;;;;;;8.37;4.63;;;;;;;;;;5053568;28;20461;-77
2022/09/06 13:59:44;;;;;;;6.17;4.90;;;;;;;;;;5053529;28;20929;-77
2022/09/06 14:02:14;;;;;;;5.80;5.00;;;;;;;;;;5053847;28;20449;-77
2022/09/06 14:04:41;;;;;;;9.90;9.10;;;;;;;;;;5052713;28;20514;-77
2022/09/06 14:07:08;;;;;;;5.70;5.30;;;;;;;;;;5053362;28;20469;-76
2022/09/06 14:09:36;;;;;;;9.47;5.40;;;;;;;;;;5053519;28;20831;-77
2022/09/06 14:12:04;;;;;;;6.73;4.80;;;;;;;;;;5068362;28;20448;-77
2022/09/06 14:14:31;;;;;;;5.97;5.17;;;;;;;;;;5073198;28;20487;-76
2022/09/06 14:17:00;;;;;;;7.10;5.40;;;;;;;;;;5073548;28;20468;-76
2022/09/06 14:19:27;;;;;;;6.17;5.57;;;;;;;;;;5073808;28;20452;-77
2022/09/06 14:21:54;;;;;;;6.57;5.03;;;;;;;;;;5073429;28;20445;-77
2022/09/06 14:24:21;;;;;;;10.30;5.20;;;;;;;;;;5073522;28;20444;-77
2022/09/06 14:26:48;;;;;;;5.83;5.27;;;;;;;;;;5074449;28;20468;-77
2022/09/06 14:29:15;;;;;;;7.23;4.90;;;;;;;;;;5073492;28;21012;-77
2022/09/06 14:31:42;;;;;;;6.67;5.40;;;;;;;;;;5073402;28;20492;-77
2022/09/06 14:34:11;;;;;;;6.43;5.83;;;;;;;;;;5076254;28;20518;-77
2022/09/06 14:36:38;;;;;;;8.00;5.70;;;;;;;;;;5076995;28;20451;-77
2022/09/06 14:39:05;;;;;;;6.20;5.60;;;;;;;;;;5077368;28;20663;-76
2022/09/06 14:41:32;;;;;;;6.20;5.30;;;;;;;;;;5075212;28;20436;-76
2022/09/06 14:43:59;;;;;;;6.47;4.87;;;;;;;;;;5072188;28;20582;-77
2022/09/06 14:46:27;;;;;;;5.43;4.93;;;;;;;;;;5071933;28;20460;-76
2022/09/06 14:48:58;;;;;;;8.47;4.97;;;;;;;;;;5072110;28;20498;-77
2022/09/06 14:51:26;;;;;;;6.83;5.50;;;;;;;;;;5072108;28;20476;-77
2022/09/06 14:53:54;;;;;;;5.80;5.10;;;;;;;;;;5072276;28;20455;-76
2022/09/06 14:56:22;;;;;;;6.10;5.53;;;;;;;;;;5072607;28;20699;-77